Time;durP1;ratioP1;P1;durP2;ratioP2;P2;SDS_P1;SDS_P2;PMS_P1;PMS_P2;Temp;Humidity;BMP_temperature;BMP_pressure;BME280_temperature;BME280_humidity;BME280_pressure;Samples;Min_cycle;Max_cycle;Signal;HPM_P1;HPM_P2
2021/12/02 00:02:08;;;;;;;11.32;1.77;;;5.50;49.00;;;;;;4888769;29;20057;-71
2021/12/02 00:04:36;;;;;;;15.93;2.50;;;5.50;49.40;;;;;;4875293;29;20049;-71
2021/12/02 00:07:04;;;;;;;14.35;2.05;;;5.50;49.60;;;;;;4890813;29;20628;-71
2021/12/02 00:09:31;;;;;;;14.40;3.25;;;5.50;47.30;;;;;;4888571;29;20055;-71
2021/12/02 00:11:56;;;;;;;6.53;1.20;;;5.50;49.70;;;;;;4890485;29;20109;-71
2021/12/02 00:14:25;;;;;;;8.48;1.80;;;5.40;49.40;;;;;;4889315;29;20454;-72
2021/12/02 00:17:04;;;;;;;17.83;2.45;;;5.40;48.40;;;;;;4904365;29;20582;-72
2021/12/02 00:22:18;;;;;;;10.38;2.67;;;5.40;52.10;;;;;;4889196;29;20330;-71
2021/12/02 00:24:52;;;;;;;14.23;2.15;;;5.30;52.60;;;;;;4890125;29;20049;-71
2021/12/02 00:27:19;;;;;;;16.23;1.98;;;5.30;53.30;;;;;;4888877;29;20068;-71
2021/12/02 00:29:46;;;;;;;14.32;2.63;;;5.30;53.70;;;;;;4888375;29;20052;-71
2021/12/02 00:32:12;;;;;;;13.68;2.00;;;5.30;54.60;;;;;;4885766;29;20503;-71
2021/12/02 00:34:46;;;;;;;15.13;1.75;;;5.30;54.10;;;;;;4888783;29;20414;-71
2021/12/02 00:37:12;;;;;;;13.93;2.20;;;5.30;55.00;;;;;;4888008;29;20068;-72
2021/12/02 00:39:39;;;;;;;16.38;2.25;;;5.30;54.40;;;;;;4891674;29;20093;-71
2021/12/02 00:42:07;;;;;;;14.70;2.08;;;5.30;55.20;;;;;;4894063;29;20079;-71
2021/12/02 00:44:33;;;;;;;17.92;2.75;;;5.30;55.30;;;;;;4891938;29;20112;-71
2021/12/02 00:47:02;;;;;;;12.35;2.15;;;5.30;56.10;;;;;;4893805;29;20083;-71
2021/12/02 00:49:29;;;;;;;22.30;2.50;;;5.30;56.70;;;;;;4892663;29;20525;-71
2021/12/02 00:51:57;;;;;;;16.52;2.20;;;5.30;56.50;;;;;;4906745;29;20085;-71
2021/12/02 00:54:25;;;;;;;13.65;2.95;;;5.30;56.10;;;;;;4891387;29;20491;-71
2021/12/02 00:56:52;;;;;;;7.65;1.42;;;5.20;55.90;;;;;;4891671;29;20063;-71
2021/12/02 00:59:20;;;;;;;13.77;1.75;;;5.20;55.50;;;;;;4893441;29;20056;-71
2021/12/02 01:01:48;;;;;;;17.00;2.90;;;5.20;55.30;;;;;;4888888;29;20052;-71
2021/12/02 01:04:21;;;;;;;15.23;1.83;;;5.20;55.30;;;;;;4893210;29;20045;-71
2021/12/02 01:06:47;;;;;;;7.15;1.48;;;5.10;55.10;;;;;;4892489;29;20672;-72
2021/12/02 01:09:13;;;;;;;12.38;1.65;;;5.10;54.70;;;;;;4891754;29;20099;-71
2021/12/02 01:11:40;;;;;;;12.63;1.85;;;5.00;55.70;;;;;;4907091;29;20076;-71
2021/12/02 01:14:07;;;;;;;10.85;1.40;;;5.00;55.50;;;;;;4891825;29;20044;-72
2021/12/02 01:16:33;;;;;;;9.30;1.40;;;5.00;54.50;;;;;;4907324;29;20067;-72
2021/12/02 01:19:00;;;;;;;8.65;1.83;;;4.90;55.90;;;;;;4892030;29;20049;-71
2021/12/02 01:21:28;;;;;;;13.32;1.52;;;5.00;56.20;;;;;;4890180;29;20044;-72
2021/12/02 01:24:03;;;;;;;13.13;3.30;;;5.00;56.60;;;;;;4891199;29;20119;-71
2021/12/02 01:26:31;;;;;;;12.00;1.70;;;4.90;57.50;;;;;;4880722;29;20072;-71
2021/12/02 01:28:59;;;;;;;13.57;2.17;;;4.80;56.80;;;;;;4892542;29;20053;-71
2021/12/02 01:31:30;;;;;;;15.25;2.30;;;4.80;57.20;;;;;;4887437;29;20056;-72
2021/12/02 01:33:56;;;;;;;9.50;1.83;;;4.80;58.10;;;;;;4891223;29;20048;-72
2021/12/02 01:36:25;;;;;;;16.65;2.38;;;4.70;58.30;;;;;;4891418;29;20053;-72
2021/12/02 01:38:52;;;;;;;17.80;2.60;;;4.60;59.20;;;;;;4878719;29;20105;-72
2021/12/02 01:41:18;;;;;;;16.55;2.22;;;4.60;58.20;;;;;;4902553;29;20046;-71
2021/12/02 01:43:50;;;;;;;10.88;2.40;;;4.60;58.00;;;;;;4889375;29;20100;-72
2021/12/02 01:46:23;;;;;;;10.48;1.83;;;4.60;57.60;;;;;;4892701;29;20572;-71
2021/12/02 01:49:04;;;;;;;13.40;1.70;;;4.60;57.20;;;;;;4889122;29;20052;-71
2021/12/02 01:51:36;;;;;;;6.63;1.60;;;4.70;58.30;;;;;;4890786;29;20041;-72
2021/12/02 01:54:11;;;;;;;9.32;1.85;;;4.60;59.40;;;;;;4891861;29;20074;-71
2021/12/02 01:57:09;;;;;;;16.35;2.15;;;4.60;59.00;;;;;;4891259;29;20101;-71
2021/12/02 01:59:38;;;;;;;3.90;1.30;;;4.60;60.00;;;;;;4892246;29;20067;-72
2021/12/02 02:02:10;;;;;;;18.50;1.17;;;4.70;58.10;;;;;;4889949;29;20041;-72
2021/12/02 02:04:36;;;;;;;3.83;0.82;;;4.70;59.00;;;;;;4894446;29;20127;-72
2021/12/02 02:07:09;;;;;;;15.40;2.55;;;4.60;60.00;;;;;;4891656;29;20135;-71
2021/12/02 02:09:35;;;;;;;11.40;3.00;;;4.50;62.90;;;;;;4890286;29;20048;-71
2021/12/02 02:12:04;;;;;;;11.77;2.92;;;4.30;65.70;;;;;;4892204;29;20068;-72
2021/12/02 02:14:30;;;;;;;16.83;1.83;;;4.10;68.50;;;;;;4887667;29;20063;-72
2021/12/02 02:16:59;;;;;;;28.55;4.50;;;3.80;71.60;;;;;;4887794;29;20103;-72
2021/12/02 02:19:30;;;;;;;18.80;3.58;;;3.70;74.10;;;;;;4905285;29;20068;-72
2021/12/02 02:21:57;;;;;;;18.15;3.00;;;3.60;74.30;;;;;;4891400;29;20052;-72
2021/12/02 02:24:23;;;;;;;28.90;5.97;;;3.60;75.60;;;;;;4882157;29;20120;-72
2021/12/02 02:26:49;;;;;;;8.25;1.58;;;3.50;74.60;;;;;;4890607;29;20044;-72
2021/12/02 02:29:17;;;;;;;11.10;2.05;;;3.50;74.40;;;;;;4891871;29;20055;-72
2021/12/02 02:31:44;;;;;;;15.35;2.83;;;3.40;74.90;;;;;;4888247;29;20055;-72
2021/12/02 02:34:12;;;;;;;10.80;2.05;;;3.40;75.60;;;;;;4889909;29;20099;-72
2021/12/02 02:36:48;;;;;;;15.80;2.42;;;3.40;75.80;;;;;;4885114;29;20044;-72
2021/12/02 02:39:14;;;;;;;6.60;1.95;;;3.40;76.30;;;;;;4891067;29;20052;-72
2021/12/02 02:41:42;;;;;;;11.23;2.10;;;3.40;75.90;;;;;;4890767;29;20108;-72
2021/12/02 02:44:09;;;;;;;14.63;2.95;;;3.40;75.60;;;;;;4890453;29;20059;-73
2021/12/02 02:46:39;;;;;;;7.78;1.00;;;3.40;75.20;;;;;;4891548;29;20044;-73
2021/12/02 02:49:10;;;;;;;9.33;1.43;;;3.30;75.50;;;;;;4888403;29;20063;-73
2021/12/02 02:51:39;;;;;;;4.90;1.50;;;3.30;75.80;;;;;;4890998;29;20697;-72
2021/12/02 02:54:09;;;;;;;6.32;1.00;;;3.20;76.00;;;;;;4888622;29;20048;-73
2021/12/02 02:56:43;;;;;;;6.43;0.95;;;3.20;76.20;;;;;;4891075;29;20056;-73
2021/12/02 03:12:08;;;;;;;6.40;1.10;;;3.20;77.40;;;;;;4889378;29;20052;-73
2021/12/02 03:14:51;;;;;;;3.65;0.77;;;3.20;77.50;;;;;;4887271;29;20052;-73
2021/12/02 03:17:17;;;;;;;4.55;0.57;;;3.20;77.80;;;;;;4891453;29;20044;-73
2021/12/02 03:19:45;;;;;;;3.40;0.75;;;3.20;77.60;;;;;;4888321;29;20517;-73
2021/12/02 03:22:12;;;;;;;3.08;0.68;;;3.20;77.70;;;;;;4891208;29;20048;-73
2021/12/02 03:24:38;;;;;;;4.55;0.85;;;3.20;77.40;;;;;;4888810;29;20039;-73
2021/12/02 03:27:05;;;;;;;5.82;0.82;;;3.30;77.70;;;;;;4890355;29;20056;-73
2021/12/02 03:29:31;;;;;;;3.10;0.75;;;3.30;77.60;;;;;;4889445;29;20148;-72
2021/12/02 03:31:57;;;;;;;5.30;0.50;;;3.30;77.90;;;;;;4889249;29;20461;-73
2021/12/02 03:34:23;;;;;;;3.65;0.80;;;3.30;77.20;;;;;;4888010;29;20064;-73
2021/12/02 03:36:52;;;;;;;3.83;0.52;;;3.20;77.20;;;;;;4887425;29;20055;-73
2021/12/02 03:39:18;;;;;;;8.68;0.73;;;3.20;77.80;;;;;;4891035;29;20558;-73
2021/12/02 03:41:44;;;;;;;4.88;0.40;;;3.20;78.00;;;;;;4889392;29;20048;-74
2021/12/02 03:44:10;;;;;;;3.53;0.40;;;3.20;78.00;;;;;;4887232;29;20088;-73
2021/12/02 03:46:37;;;;;;;1.75;0.52;;;3.20;77.70;;;;;;4890338;29;20053;-73
2021/12/02 03:49:03;;;;;;;5.15;0.55;;;3.10;78.20;;;;;;4889223;29;20344;-73
2021/12/02 03:51:29;;;;;;;1.73;0.15;;;3.10;77.60;;;;;;4889312;29;20044;-73
2021/12/02 03:53:56;;;;;;;4.30;0.47;;;3.10;77.00;;;;;;4889092;29;20116;-73
2021/12/02 03:56:21;;;;;;;2.58;0.47;;;3.10;76.60;;;;;;4885053;29;20053;-73
2021/12/02 03:58:51;;;;;;;4.82;0.50;;;3.10;76.60;;;;;;4888990;29;20502;-73
2021/12/02 04:01:18;;;;;;;2.22;0.40;;;3.20;77.10;;;;;;4890394;29;20069;-73
2021/12/02 04:03:44;;;;;;;2.47;0.50;;;3.10;77.70;;;;;;4888297;29;20060;-73
2021/12/02 04:06:11;;;;;;;3.63;0.63;;;3.10;78.30;;;;;;4887525;29;20119;-73
2021/12/02 04:08:44;;;;;;;3.75;0.52;;;3.10;78.30;;;;;;4890671;29;20044;-73
2021/12/02 04:17:04;;;;;;;6.03;0.80;;;3.10;79.00;;;;;;4906761;29;20066;-73
2021/12/02 04:19:30;;;;;;;6.00;0.40;;;3.10;79.10;;;;;;4906687;29;20123;-73
2021/12/02 04:21:57;;;;;;;6.00;0.35;;;3.10;78.60;;;;;;4893588;29;20143;-73
2021/12/02 04:24:23;;;;;;;3.92;0.70;;;3.00;78.70;;;;;;4892057;29;20162;-73
2021/12/02 04:26:49;;;;;;;3.30;0.35;;;3.00;78.70;;;;;;4891583;29;20041;-73
2021/12/02 04:29:15;;;;;;;3.05;0.50;;;3.00;78.20;;;;;;4893092;29;20063;-72
2021/12/02 04:31:43;;;;;;;0.35;0.10;;;3.00;77.80;;;;;;4891951;29;20036;-73
2021/12/02 04:34:10;;;;;;;0.30;0.20;;;2.80;77.10;;;;;;4891579;29;20062;-73
2021/12/02 04:36:35;;;;;;;0.70;0.10;;;2.70;78.10;;;;;;4889773;29;20511;-73
2021/12/02 04:39:02;;;;;;;1.17;0.32;;;2.60;77.70;;;;;;4891069;29;20131;-73
2021/12/02 04:41:28;;;;;;;1.00;0.15;;;2.60;78.40;;;;;;4891276;29;20403;-72
2021/12/02 04:43:53;;;;;;;5.78;0.32;;;2.50;78.70;;;;;;4891122;29;20044;-73
2021/12/02 04:46:19;;;;;;;4.18;0.40;;;2.40;78.80;;;;;;4889647;29;20543;-73
2021/12/02 04:48:45;;;;;;;1.77;0.57;;;2.30;78.90;;;;;;4891221;29;20053;-73
2021/12/02 04:51:11;;;;;;;3.88;0.32;;;2.20;79.20;;;;;;4892683;29;20586;-73
2021/12/02 04:53:37;;;;;;;1.55;0.20;;;2.20;79.70;;;;;;4890950;29;20051;-73
2021/12/02 04:56:03;;;;;;;3.92;0.28;;;2.10;80.10;;;;;;4876164;29;20060;-73
2021/12/02 04:58:30;;;;;;;0.52;0.20;;;2.00;80.40;;;;;;4884289;29;20045;-74
2021/12/02 05:00:58;;;;;;;1.60;0.30;;;2.00;80.60;;;;;;4883985;29;20036;-74
2021/12/02 05:03:24;;;;;;;2.03;0.40;;;1.90;80.60;;;;;;4891970;29;20064;-74
2021/12/02 05:05:49;;;;;;;3.60;0.38;;;1.90;80.80;;;;;;4892573;29;20563;-74
2021/12/02 05:08:15;;;;;;;0.32;0.10;;;1.90;81.10;;;;;;4889764;29;20073;-74
2021/12/02 05:10:41;;;;;;;0.57;0.20;;;1.90;81.20;;;;;;4890720;29;20503;-74
2021/12/02 05:13:07;;;;;;;1.38;0.10;;;1.90;81.40;;;;;;4892733;29;20048;-74
2021/12/02 05:15:33;;;;;;;3.85;0.30;;;1.80;81.40;;;;;;4890483;29;20052;-74
2021/12/02 05:17:58;;;;;;;1.77;0.30;;;1.80;81.50;;;;;;4892656;29;20059;-74
2021/12/02 05:20:24;;;;;;;2.00;0.38;;;1.80;81.70;;;;;;4885778;29;20472;-74
2021/12/02 05:22:50;;;;;;;0.77;0.15;;;1.80;81.80;;;;;;4887638;29;20487;-73
2021/12/02 05:25:16;;;;;;;3.40;0.20;;;1.70;81.90;;;;;;4891391;29;20418;-74
2021/12/02 05:27:42;;;;;;;1.40;0.47;;;1.70;82.00;;;;;;4873820;29;20071;-74
2021/12/02 05:30:09;;;;;;;2.67;0.30;;;1.70;82.00;;;;;;4875390;29;20060;-74
2021/12/02 05:32:34;;;;;;;1.88;0.40;;;1.70;82.00;;;;;;4884651;29;20059;-74
2021/12/02 05:35:00;;;;;;;0.10;0.10;;;1.70;82.20;;;;;;4890971;29;20115;-74
2021/12/02 05:37:27;;;;;;;2.03;0.20;;;1.70;82.40;;;;;;4903617;29;20040;-75
2021/12/02 05:39:55;;;;;;;0.43;0.30;;;1.70;82.60;;;;;;4892440;29;20045;-74
2021/12/02 05:42:21;;;;;;;0.28;0.13;;;1.70;82.60;;;;;;4891476;29;20036;-74
2021/12/02 05:44:47;;;;;;;0.73;0.17;;;1.70;82.80;;;;;;4892376;29;20118;-74
2021/12/02 05:47:13;;;;;;;2.40;0.50;;;1.80;83.00;;;;;;4890733;29;20487;-74
2021/12/02 05:49:39;;;;;;;0.60;0.20;;;1.90;83.20;;;;;;4889023;29;20040;-73
2021/12/02 05:52:06;;;;;;;0.30;0.20;;;2.00;84.10;;;;;;4890654;29;20047;-74
2021/12/02 05:54:32;;;;;;;2.35;0.10;;;2.10;82.80;;;;;;4891082;29;20407;-74
2021/12/02 05:56:57;;;;;;;2.45;0.30;;;2.20;82.60;;;;;;4890440;29;20040;-74
2021/12/02 05:59:24;;;;;;;0.25;0.10;;;2.20;82.40;;;;;;4890954;29;20048;-74
2021/12/02 06:01:51;;;;;;;4.18;0.55;;;2.30;82.30;;;;;;4906148;29;20393;-73
2021/12/02 06:04:17;;;;;;;3.83;0.63;;;2.30;82.20;;;;;;4874670;29;20089;-73
2021/12/02 06:06:43;;;;;;;0.20;0.10;;;2.30;81.80;;;;;;4890287;29;20056;-72
2021/12/02 06:09:09;;;;;;;0.90;0.10;;;2.20;82.20;;;;;;4906075;29;20463;-73
2021/12/02 06:11:34;;;;;;;1.27;0.30;;;2.10;81.30;;;;;;4891140;29;20484;-73
2021/12/02 06:14:00;;;;;;;0.20;0.20;;;2.00;81.70;;;;;;4883591;29;20045;-72
2021/12/02 06:16:26;;;;;;;2.28;0.30;;;2.00;82.20;;;;;;4887773;29;20400;-73
2021/12/02 06:18:51;;;;;;;1.30;0.28;;;2.00;82.40;;;;;;4890617;29;20061;-73
2021/12/02 06:21:17;;;;;;;3.30;0.30;;;1.90;82.50;;;;;;4890409;29;20043;-73
2021/12/02 06:23:43;;;;;;;0.10;0.10;;;2.00;82.80;;;;;;4890295;29;20383;-73
2021/12/02 06:26:09;;;;;;;0.20;0.20;;;2.00;82.80;;;;;;4885298;29;20055;-73
2021/12/02 06:28:35;;;;;;;0.50;0.28;;;2.00;82.90;;;;;;4890716;29;20487;-73
2021/12/02 06:31:02;;;;;;;0.30;0.10;;;1.90;82.90;;;;;;4889824;29;20033;-73
2021/12/02 06:33:33;;;;;;;0.03;0.00;;;1.90;83.10;;;;;;4887348;29;20068;-73
2021/12/02 06:35:59;;;;;;;2.03;0.28;;;1.90;83.00;;;;;;4889096;29;20048;-73
2021/12/02 06:38:25;;;;;;;0.10;0.10;;;1.90;83.00;;;;;;4888175;29;20044;-73
2021/12/02 06:40:50;;;;;;;0.45;0.10;;;1.80;83.00;;;;;;4889918;29;20043;-73
2021/12/02 06:43:16;;;;;;;4.68;0.40;;;1.80;83.10;;;;;;4872141;29;20365;-73
2021/12/02 06:45:43;;;;;;;2.92;0.25;;;1.70;83.00;;;;;;4890892;29;20074;-74
2021/12/02 06:48:09;;;;;;;0.98;0.22;;;1.70;83.10;;;;;;4890880;29;20045;-73
2021/12/02 06:50:37;;;;;;;1.13;0.20;;;1.70;83.10;;;;;;4889080;29;20125;-73
2021/12/02 06:53:04;;;;;;;5.22;0.60;;;1.60;83.10;;;;;;4882919;29;20056;-74
2021/12/02 06:55:30;;;;;;;1.13;0.30;;;1.60;83.20;;;;;;4883477;29;20064;-74
2021/12/02 06:57:56;;;;;;;0.95;0.30;;;1.50;83.40;;;;;;4891461;29;20059;-74
2021/12/02 07:00:22;;;;;;;2.05;0.50;;;1.50;83.40;;;;;;4888632;29;20483;-74
2021/12/02 07:02:52;;;;;;;0.20;0.20;;;1.40;83.50;;;;;;4888082;29;20080;-74
2021/12/02 07:05:18;;;;;;;2.38;0.35;;;1.50;84.00;;;;;;4885820;29;20407;-74
2021/12/02 07:07:45;;;;;;;0.55;0.22;;;1.40;83.80;;;;;;4885947;29;20060;-74
2021/12/02 07:10:19;;;;;;;3.53;0.73;;;1.40;83.90;;;;;;4890084;29;20048;-74
2021/12/02 07:12:49;;;;;;;3.63;0.30;;;1.30;84.00;;;;;;4884713;29;20131;-74
2021/12/02 07:15:25;;;;;;;;;;;1.30;83.90;;;;;;4886774;29;20048;-74
2021/12/02 07:17:59;;;;;;;5.22;0.98;;;1.30;83.80;;;;;;4881508;29;19983;-74
2021/12/02 07:20:29;;;;;;;4.97;0.40;;;1.20;83.80;;;;;;4890095;29;20439;-74
2021/12/02 07:22:56;;;;;;;6.10;0.60;;;1.20;84.10;;;;;;4888424;29;20048;-74
2021/12/02 07:25:22;;;;;;;1.52;0.45;;;1.10;84.10;;;;;;4887170;29;20080;-74
2021/12/02 07:27:48;;;;;;;1.95;0.52;;;1.10;84.30;;;;;;4886322;29;20099;-74
2021/12/02 07:30:14;;;;;;;2.15;0.50;;;1.10;84.30;;;;;;4887289;29;20390;-75
2021/12/02 07:32:41;;;;;;;1.95;0.77;;;1.10;84.60;;;;;;4881978;29;20099;-75
2021/12/02 07:35:15;;;;;;;2.13;0.52;;;1.00;84.60;;;;;;4883191;29;20473;-75
2021/12/02 07:37:47;;;;;;;7.40;0.77;;;1.00;84.60;;;;;;4895821;29;20049;-75
2021/12/02 07:40:14;;;;;;;2.60;0.50;;;1.00;84.70;;;;;;4889031;29;20123;-75
2021/12/02 07:42:40;;;;;;;3.30;0.65;;;1.00;84.80;;;;;;4887687;29;20052;-74
2021/12/02 07:45:07;;;;;;;4.05;0.50;;;0.90;84.90;;;;;;4889471;29;20116;-75
2021/12/02 07:47:34;;;;;;;3.83;0.82;;;0.90;85.00;;;;;;4891265;29;20487;-75
2021/12/02 07:50:00;;;;;;;2.60;0.57;;;0.90;85.20;;;;;;4893718;29;20049;-74
2021/12/02 07:52:26;;;;;;;1.25;0.63;;;0.90;85.30;;;;;;4907806;29;20373;-75
2021/12/02 07:54:57;;;;;;;1.13;0.70;;;0.90;85.40;;;;;;4907176;29;20503;-75
2021/12/02 07:57:22;;;;;;;;;;;0.90;85.50;;;;;;4892978;29;20052;-75
2021/12/02 07:59:50;;;;;;;5.82;0.82;;;0.90;85.60;;;;;;4889661;29;19928;-75
2021/12/02 08:02:16;;;;;;;4.32;1.15;;;0.90;85.70;;;;;;4905564;29;20458;-75
2021/12/02 08:04:43;;;;;;;2.60;0.90;;;0.90;85.70;;;;;;4906908;29;20529;-75
2021/12/02 08:07:08;;;;;;;2.95;0.98;;;0.90;85.80;;;;;;4889472;29;20115;-75
2021/12/02 08:09:34;;;;;;;2.80;1.08;;;0.90;85.80;;;;;;4870741;29;20483;-75
2021/12/02 08:12:01;;;;;;;1.85;1.20;;;0.90;85.80;;;;;;4855140;29;20076;-75
2021/12/02 08:14:27;;;;;;;5.90;1.40;;;0.90;85.90;;;;;;4891572;29;20088;-75
2021/12/02 08:16:53;;;;;;;4.13;1.42;;;1.00;86.00;;;;;;4890898;29;20558;-75
2021/12/02 08:19:20;;;;;;;7.78;1.40;;;1.00;86.00;;;;;;4887191;29;20084;-76
2021/12/02 08:21:46;;;;;;;2.45;1.38;;;1.10;86.20;;;;;;4890197;29;20422;-76
2021/12/02 08:24:12;;;;;;;1.42;1.20;;;1.10;86.20;;;;;;4891004;29;20053;-76
2021/12/02 08:26:38;;;;;;;2.60;1.38;;;1.10;86.20;;;;;;4890034;29;20041;-76
2021/12/02 08:29:05;;;;;;;3.20;1.67;;;1.20;86.30;;;;;;4890084;29;20156;-76
2021/12/02 08:31:31;;;;;;;6.65;1.85;;;1.40;86.30;;;;;;4890616;29;20072;-75
2021/12/02 08:33:56;;;;;;;7.47;1.05;;;1.50;86.20;;;;;;4905907;29;20510;-76
2021/12/02 08:36:26;;;;;;;3.85;1.90;;;1.60;86.30;;;;;;4891558;29;20051;-75
2021/12/02 08:38:52;;;;;;;8.30;3.22;;;1.80;86.20;;;;;;4890866;29;20444;-76
2021/12/02 08:41:19;;;;;;;1.80;0.93;;;1.90;86.00;;;;;;4892615;29;20100;-76
2021/12/02 08:43:47;;;;;;;9.75;3.05;;;2.00;85.80;;;;;;4891232;29;20491;-75
2021/12/02 08:46:12;;;;;;;7.97;4.35;;;2.10;85.40;;;;;;4891573;29;20052;-75
2021/12/02 08:48:38;;;;;;;30.60;10.73;;;2.30;86.00;;;;;;4893342;29;20063;-75
2021/12/02 08:51:04;;;;;;;33.15;10.35;;;2.50;86.20;;;;;;4888276;29;20594;-75
2021/12/02 08:53:30;;;;;;;10.38;3.33;;;2.60;85.90;;;;;;4860967;29;20044;-75
2021/12/02 08:55:55;;;;;;;9.55;2.58;;;2.60;85.30;;;;;;4890606;29;20902;-74
2021/12/02 08:58:21;;;;;;;4.45;1.02;;;2.60;85.20;;;;;;4890477;29;20412;-75
2021/12/02 09:00:47;;;;;;;6.40;1.08;;;2.70;85.00;;;;;;4891618;29;20079;-75
2021/12/02 09:03:15;;;;;;;8.10;1.05;;;2.70;84.80;;;;;;4889536;29;20049;-75
2021/12/02 09:05:41;;;;;;;7.18;0.80;;;2.70;85.00;;;;;;4889636;29;20048;-74
2021/12/02 09:08:07;;;;;;;10.40;0.68;;;2.80;85.20;;;;;;4906279;29;20052;-74
2021/12/02 09:10:34;;;;;;;6.38;0.75;;;2.80;84.90;;;;;;4890532;29;20041;-74
2021/12/02 09:13:07;;;;;;;5.82;0.60;;;2.90;85.00;;;;;;4884470;29;20045;-74
2021/12/02 09:15:35;;;;;;;4.85;0.60;;;3.00;85.10;;;;;;4885784;29;20063;-74
2021/12/02 09:18:01;;;;;;;3.17;0.50;;;3.10;85.00;;;;;;4885794;29;20411;-73
2021/12/02 09:20:27;;;;;;;1.67;0.50;;;3.20;85.00;;;;;;4890984;29;20053;-74
2021/12/02 09:22:52;;;;;;;2.83;0.38;;;3.20;83.00;;;;;;4890388;29;20044;-74
2021/12/02 09:25:18;;;;;;;4.30;0.43;;;3.20;81.80;;;;;;4885431;29;20041;-73
2021/12/02 09:27:45;;;;;;;6.03;0.50;;;3.20;82.00;;;;;;4887250;29;20045;-73
2021/12/02 09:30:11;;;;;;;4.32;0.40;;;3.20;83.40;;;;;;4887485;29;20040;-74
2021/12/02 09:32:38;;;;;;;6.90;0.70;;;3.20;82.90;;;;;;4889120;29;20132;-74
2021/12/02 09:35:06;;;;;;;3.28;0.35;;;3.20;81.90;;;;;;4890039;29;20475;-74
2021/12/02 09:37:32;;;;;;;6.25;1.33;;;3.10;82.20;;;;;;4890114;29;20476;-74
2021/12/02 09:39:58;;;;;;;3.60;1.00;;;3.10;82.60;;;;;;4903291;29;20084;-75
2021/12/02 09:42:25;;;;;;;6.63;0.82;;;3.10;82.40;;;;;;4886441;29;21030;-74
2021/12/02 09:44:55;;;;;;;3.28;0.40;;;3.10;82.00;;;;;;4888998;29;20049;-74
2021/12/02 09:47:22;;;;;;;6.72;0.68;;;3.10;81.40;;;;;;4887471;29;20427;-74
2021/12/02 09:49:48;;;;;;;6.25;1.60;;;3.10;81.30;;;;;;4888751;29;20048;-74
2021/12/02 09:52:16;;;;;;;3.30;0.50;;;3.00;81.20;;;;;;4888154;29;20056;-73
2021/12/02 09:54:47;;;;;;;2.42;0.30;;;2.90;81.10;;;;;;4888368;29;20048;-74
2021/12/02 09:57:17;;;;;;;7.18;0.80;;;2.70;82.10;;;;;;4890822;29;20067;-74
2021/12/02 10:02:11;;;;;;;3.55;0.47;;;2.60;82.00;;;;;;4891917;29;20584;-74
2021/12/02 10:04:44;;;;;;;2.63;0.40;;;2.60;82.60;;;;;;4889961;29;20054;-74
2021/12/02 10:07:17;;;;;;;2.63;0.32;;;2.60;82.50;;;;;;4889076;29;20055;-74
2021/12/02 10:10:08;;;;;;;2.05;0.20;;;2.50;82.50;;;;;;4888268;29;20048;-74
2021/12/02 10:12:37;;;;;;;0.20;0.20;;;2.60;82.20;;;;;;4890089;29;20036;-74
2021/12/02 10:15:12;;;;;;;6.38;0.25;;;2.70;82.20;;;;;;4890717;29;20058;-74
2021/12/02 10:17:42;;;;;;;5.15;0.45;;;2.70;82.70;;;;;;4890018;29;20047;-74
2021/12/02 10:22:45;;;;;;;1.17;0.22;;;2.90;82.00;;;;;;4888753;29;20048;-74
2021/12/02 10:25:10;;;;;;;3.00;0.50;;;3.00;79.80;;;;;;4890581;29;20052;-74
2021/12/02 10:27:51;;;;;;;5.88;0.40;;;3.00;79.50;;;;;;4887630;29;20238;-74
2021/12/02 10:30:24;;;;;;;3.80;0.30;;;3.10;80.10;;;;;;4887203;29;20451;-74
2021/12/02 10:32:51;;;;;;;0.40;0.10;;;3.20;79.10;;;;;;4891399;29;20071;-74
2021/12/02 10:35:20;;;;;;;2.90;0.20;;;3.30;78.70;;;;;;4888461;29;20189;-74
2021/12/02 10:37:45;;;;;;;0.17;0.13;;;3.50;79.60;;;;;;4871987;29;20169;-74
2021/12/02 10:40:14;;;;;;;2.20;0.40;;;3.50;78.30;;;;;;4888642;29;20361;-74
2021/12/02 10:42:44;;;;;;;0.88;0.38;;;3.40;79.20;;;;;;4889305;29;20045;-73
2021/12/02 10:45:25;;;;;;;1.83;0.30;;;3.10;79.10;;;;;;4890867;29;20384;-74
2021/12/02 10:47:54;;;;;;;5.45;0.45;;;3.00;79.70;;;;;;4881677;29;20052;-74
2021/12/02 10:50:20;;;;;;;4.28;0.30;;;2.60;78.90;;;;;;4889141;29;20060;-75
2021/12/02 10:52:47;;;;;;;3.00;1.08;;;2.30;79.80;;;;;;4888745;29;20044;-74
2021/12/02 10:55:19;;;;;;;2.00;0.32;;;2.00;80.90;;;;;;4890326;29;20117;-74
2021/12/02 10:57:49;;;;;;;1.90;0.60;;;1.80;82.20;;;;;;4885018;29;20124;-74
2021/12/02 11:00:19;;;;;;;1.80;0.38;;;1.70;83.00;;;;;;4887381;29;20059;-74
2021/12/02 11:02:49;;;;;;;1.25;0.20;;;1.60;83.50;;;;;;4889234;29;20048;-74
2021/12/02 11:05:31;;;;;;;2.70;0.25;;;1.50;83.80;;;;;;4888564;29;20059;-75
2021/12/02 11:08:07;;;;;;;2.08;0.25;;;1.50;84.10;;;;;;4889192;29;20053;-74
2021/12/02 11:10:43;;;;;;;4.68;0.68;;;1.50;84.70;;;;;;4888964;29;20139;-74
2021/12/02 11:13:11;;;;;;;7.18;0.60;;;1.50;85.00;;;;;;4877517;29;20056;-74
2021/12/02 11:15:39;;;;;;;0.77;0.20;;;1.50;85.30;;;;;;4888938;29;20113;-74
2021/12/02 11:18:08;;;;;;;2.20;0.30;;;1.40;84.60;;;;;;4889504;29;20501;-74
2021/12/02 11:20:58;;;;;;;3.58;0.40;;;1.40;85.00;;;;;;4879350;29;20049;-75
2021/12/02 11:23:37;;;;;;;1.10;0.17;;;1.40;85.30;;;;;;4862141;29;20471;-75
2021/12/02 11:26:10;;;;;;;0.85;0.20;;;1.40;85.30;;;;;;4889118;29;20056;-75
2021/12/02 11:28:39;;;;;;;3.13;0.30;;;1.40;85.40;;;;;;4888721;29;20115;-75
2021/12/02 11:31:13;;;;;;;1.85;0.30;;;1.40;85.50;;;;;;4887105;29;20456;-75
2021/12/02 11:33:40;;;;;;;1.58;0.30;;;1.40;85.60;;;;;;4889010;29;20062;-75
2021/12/02 11:36:15;;;;;;;1.20;0.25;;;1.50;85.80;;;;;;4888096;29;20151;-74
2021/12/02 11:38:41;;;;;;;1.13;0.20;;;1.60;86.10;;;;;;4889056;29;20052;-74
2021/12/02 11:41:08;;;;;;;1.00;0.10;;;1.60;86.20;;;;;;4888649;29;20057;-74
2021/12/02 11:43:38;;;;;;;0.35;0.10;;;1.70;86.20;;;;;;4888110;29;20044;-74
2021/12/02 11:46:06;;;;;;;0.57;0.20;;;1.70;86.10;;;;;;4891250;29;20131;-74
2021/12/02 11:48:39;;;;;;;1.25;0.17;;;1.60;86.00;;;;;;4888304;29;20423;-74
2021/12/02 11:51:12;;;;;;;1.38;0.15;;;1.60;85.70;;;;;;4880691;29;20400;-75
2021/12/02 11:53:38;;;;;;;3.63;0.20;;;1.50;85.20;;;;;;4886358;29;20063;-75
2021/12/02 11:56:13;;;;;;;1.00;0.13;;;1.50;85.90;;;;;;4889173;29;20076;-77
2021/12/02 11:58:40;;;;;;;1.85;0.63;;;1.30;84.70;;;;;;4888456;29;20057;-76
2021/12/02 12:01:12;;;;;;;3.75;0.40;;;1.20;84.80;;;;;;4883519;29;20045;-75
2021/12/02 12:03:51;;;;;;;2.22;0.40;;;1.10;85.50;;;;;;4888687;29;20119;-75
2021/12/02 12:06:25;;;;;;;1.10;0.20;;;1.10;85.50;;;;;;4887832;29;20060;-76
2021/12/02 12:08:53;;;;;;;2.25;0.40;;;1.10;85.70;;;;;;4888480;29;20502;-76
2021/12/02 12:11:23;;;;;;;0.50;0.22;;;1.10;85.60;;;;;;4860824;29;20107;-76
2021/12/02 12:13:52;;;;;;;1.42;0.28;;;1.20;85.50;;;;;;4887887;29;20052;-75
2021/12/02 12:16:30;;;;;;;2.50;0.30;;;1.20;85.40;;;;;;4889186;29;20514;-75
2021/12/02 12:19:26;;;;;;;0.43;0.10;;;1.30;85.60;;;;;;4887468;29;20060;-74
2021/12/02 12:22:05;;;;;;;1.95;0.35;;;1.30;85.80;;;;;;4886882;29;20499;-74
2021/12/02 12:24:52;;;;;;;1.05;0.10;;;1.40;85.70;;;;;;4888148;29;20064;-74
2021/12/02 12:27:21;;;;;;;2.88;0.30;;;1.50;86.00;;;;;;4887833;29;20399;-74
2021/12/02 12:30:11;;;;;;;2.90;0.32;;;1.50;86.20;;;;;;4889822;29;20374;-74
2021/12/02 12:32:49;;;;;;;2.40;0.30;;;1.60;86.20;;;;;;4887324;29;20149;-73
2021/12/02 12:35:38;;;;;;;1.38;0.30;;;1.60;86.10;;;;;;4891092;29;20084;-72
2021/12/02 12:38:20;;;;;;;0.65;0.15;;;1.60;86.00;;;;;;4906870;29;20496;-72
2021/12/02 12:40:50;;;;;;;1.10;0.30;;;1.60;86.00;;;;;;4890626;29;20111;-71
2021/12/02 12:43:34;;;;;;;0.73;0.32;;;1.70;86.30;;;;;;4892479;29;20041;-71
2021/12/02 12:46:09;;;;;;;1.13;0.30;;;1.70;86.40;;;;;;4891874;29;20120;-72
2021/12/02 12:48:35;;;;;;;0.30;0.13;;;1.70;86.40;;;;;;4888243;29;20044;-71
2021/12/02 12:51:22;;;;;;;3.42;0.20;;;1.60;86.20;;;;;;4892122;29;20041;-71
2021/12/02 12:53:50;;;;;;;0.47;0.25;;;1.60;86.00;;;;;;4888863;29;20086;-72
2021/12/02 12:56:50;;;;;;;0.20;0.20;;;1.60;86.10;;;;;;4893246;29;20079;-72
2021/12/02 12:59:18;;;;;;;0.83;0.20;;;1.50;85.90;;;;;;4880646;29;20595;-72
2021/12/02 13:02:02;;;;;;;1.25;0.45;;;1.60;85.80;;;;;;4888825;29;20440;-72
2021/12/02 13:04:29;;;;;;;4.10;2.72;;;1.80;86.20;;;;;;4891199;29;20174;-72
2021/12/02 13:07:06;;;;;;;5.75;2.30;;;1.90;86.30;;;;;;4891868;29;20037;-72
2021/12/02 13:10:03;;;;;;;4.50;1.55;;;2.10;86.30;;;;;;4890526;29;20063;-72
2021/12/02 13:12:50;;;;;;;1.75;0.80;;;2.10;86.10;;;;;;4893496;29;20059;-72
2021/12/02 13:15:23;;;;;;;2.08;0.80;;;2.10;85.60;;;;;;4890879;29;20068;-72
2021/12/02 13:18:01;;;;;;;2.50;0.75;;;2.10;85.70;;;;;;4891173;29;20088;-72
2021/12/02 13:20:33;;;;;;;2.95;0.63;;;2.10;85.50;;;;;;4892673;29;20045;-72
2021/12/02 13:23:21;;;;;;;1.67;0.57;;;2.10;85.40;;;;;;4891895;29;20053;-71
2021/12/02 13:25:51;;;;;;;0.22;0.22;;;2.10;85.30;;;;;;4880636;29;20333;-72
2021/12/02 13:28:26;;;;;;;2.83;0.50;;;2.20;85.40;;;;;;4889862;29;20059;-72
2021/12/02 13:31:13;;;;;;;2.30;0.63;;;2.20;85.30;;;;;;4890700;29;20088;-71
2021/12/02 13:33:41;;;;;;;3.50;0.88;;;2.20;85.10;;;;;;4891152;29;20061;-72